Agnes, Georgia
Current Conditions -  °F | °C
As of 11:55 AM on Thursday 30 Oct 2014 (Local Time) from KHQU Reporting Station
Clear Clear  
Wind Chill: 67°   Ceiling: Unl
Heat Index: 67°   Visibility: 10mi
Dew Point: 49°   Wind: 12mph
Humidity: 54%   Direction: 30°NNE
Pressure: 30.1"   Gusts: 18mph
Location:  33.7816°N, 82.4511°W
Report Text: KHQU 301555Z AUTO 03010G16KT 10SM CLR 19/10 A3010 RMK AO1 T01920096
Loading
Personal Weather Stations






























Interactive Weather Map
Tropical Storm Tracking
New forecast layout! Learn more

10-Day Weather Forecast

Advertisements
Track Severe Weather on mobile